This is the latest recevied weather packets stored in our database for station/object KD2SIG. If no packets are shown the sender has not sent any weather packets the latest 10 day(s).
| Time | Temp. | Humidity | Pressure | Rain* | Wind** | Luminosity | Snow |
|---|---|---|---|---|---|---|---|
| 1777979470 | 17.22° C | 74% | 1002.2 hPa | 0 mm | - | 52 W/m² | - |
| 1777979167 | 17.22° C | 76% | 1002.1 hPa | 0 mm | - | 75 W/m² | - |
| 1777978864 | 16.67° C | 77% | 1002.3 hPa | 0 mm | - | 76 W/m² | - |
| 1777978560 | 16.11° C | 79% | 1002.3 hPa | 0 mm | - | 58 W/m² | - |
| 1777978256 | 15.56° C | 81% | 1002 hPa | 0 mm | - | 46 W/m² | - |
| 1777977953 | 15.56° C | 82% | 1002.2 hPa | 0 mm | - | 37 W/m² | - |
| 1777977651 | 15.56° C | 84% | 1002.2 hPa | 0 mm | - | 27 W/m² | - |
| 1777977347 | 15.56° C | 85% | 1002.1 hPa | 0 mm | - | 23 W/m² | - |
| 1777977045 | 15.56° C | 84% | 1002.2 hPa | 0 mm | - | 28 W/m² | - |
| 1777976742 | 15° C | 87% | 1002.2 hPa | 0 mm | - | 12 W/m² | - |
| 1777976439 | 15° C | 87% | 1002.1 hPa | 0 mm | - | 8 W/m² | - |
| 1777976137 | 15° C | 87% | 1001.9 hPa | 0 mm | - | 5 W/m² | - |
| 1777975833 | 15° C | 86% | 1002.1 hPa | 0 mm | - | 0 W/m² | - |
| 1777975531 | 15° C | 86% | 1002.3 hPa | 3.05 mm | - | 0 W/m² | - |
| 1777975227 | 15° C | 85% | 1002.9 hPa | 6.1 mm | - | 0 W/m² | - |
| 1777974924 | 15° C | 84% | 1002.5 hPa | 1.27 mm | - | 0 W/m² | - |
| 1777974620 | 15° C | 84% | 1002.7 hPa | 0 mm | - | 0 W/m² | - |
| 1777974317 | 15° C | 85% | 1002.5 hPa | 0 mm | - | 0 W/m² | - |
| 1777974013 | 15° C | 85% | 1002.7 hPa | 0 mm | - | 0 W/m² | - |
| 1777973709 | 15° C | 84% | 1002.7 hPa | 0 mm | - | 0 W/m² | - |
| 1777973407 | 15° C | 83% | 1002.8 hPa | 0 mm | - | 0 W/m² | - |
| 1777973104 | 15.56° C | 83% | 1002.7 hPa | 0 mm | - | 0 W/m² | - |
| 1777972802 | 15.56° C | 82% | 1003 hPa | 1.78 mm | - | 0 W/m² | - |
| 1777972499 | 15.56° C | 81% | 1002.9 hPa | 4.83 mm | - | 0 W/m² | - |
| 1777972197 | 16.11° C | 79% | 1003 hPa | 3.05 mm | - | 0 W/m² | - |
* Rain latest hour (hover to see other rain measurements)
** Current wind speed in m/s (hover to see current wind gust speed)